createdAt,value
2022-10-14T00:00:37.273Z,0.00
2022-10-14T00:01:37.284Z,0.00
2022-10-14T00:02:37.249Z,0.00
2022-10-14T00:03:37.230Z,0.00
2022-10-14T00:04:37.270Z,0.00
2022-10-14T00:05:37.218Z,0.00
2022-10-14T00:06:37.201Z,0.00
2022-10-14T00:07:37.172Z,0.00
2022-10-14T00:08:37.172Z,0.00
2022-10-14T00:09:37.161Z,0.00
2022-10-14T00:10:37.252Z,0.00
2022-10-14T00:11:37.131Z,0.00
2022-10-14T00:12:37.113Z,0.00
2022-10-14T00:13:37.103Z,0.00
2022-10-14T00:14:37.126Z,0.00
2022-10-14T00:15:37.094Z,0.00
2022-10-14T00:16:37.107Z,0.00
2022-10-14T00:17:37.056Z,0.00
2022-10-14T00:18:37.036Z,0.00
2022-10-14T00:19:37.019Z,0.00
2022-10-14T00:20:37.040Z,0.00
2022-10-14T00:21:37.026Z,0.00
2022-10-14T00:22:37.107Z,0.00
2022-10-14T00:23:36.986Z,0.00
2022-10-14T00:24:36.956Z,0.00
2022-10-14T00:25:36.957Z,0.00
2022-10-14T00:26:36.927Z,0.00
2022-10-14T00:27:36.932Z,0.00
2022-10-14T00:28:37.027Z,0.00
2022-10-14T00:29:36.899Z,0.00
2022-10-14T00:30:36.892Z,0.00
2022-10-14T00:31:36.873Z,0.00
2022-10-14T00:32:37.129Z,0.00
2022-10-14T00:33:36.842Z,0.00
2022-10-14T00:34:36.873Z,0.00
2022-10-14T00:35:36.841Z,0.00
2022-10-14T00:36:36.819Z,0.00
2022-10-14T00:37:36.806Z,0.00
2022-10-14T00:38:36.784Z,0.00
2022-10-14T00:39:36.762Z,0.00
2022-10-14T00:40:36.784Z,0.00
2022-10-14T00:41:36.741Z,0.00
2022-10-14T00:42:36.739Z,0.00
2022-10-14T00:43:36.714Z,0.00
2022-10-14T00:44:36.934Z,0.00
2022-10-14T00:45:36.704Z,0.00
2022-10-14T00:46:37.535Z,0.00
2022-10-14T00:47:36.663Z,0.00
2022-10-14T00:48:36.646Z,0.00
2022-10-14T00:49:36.638Z,0.00
2022-10-14T00:50:36.627Z,0.00
2022-10-14T00:51:36.616Z,0.00
2022-10-14T00:52:36.646Z,0.00
2022-10-14T00:53:36.579Z,0.00
2022-10-14T00:54:36.596Z,0.00
2022-10-14T00:55:36.568Z,0.00
2022-10-14T00:56:36.562Z,0.00
2022-10-14T00:57:36.548Z,0.00
2022-10-14T00:58:36.558Z,0.00
2022-10-14T00:59:36.515Z,0.00
2022-10-14T01:00:36.533Z,0.00
2022-10-14T01:01:36.488Z,0.00
2022-10-14T01:02:36.463Z,0.00
2022-10-14T01:03:36.453Z,0.00
2022-10-14T01:04:36.482Z,0.00
2022-10-14T01:05:36.432Z,0.00
2022-10-14T01:06:36.414Z,0.00
2022-10-14T01:07:36.394Z,0.00
2022-10-14T01:08:36.393Z,0.00
2022-10-14T01:09:36.375Z,0.00
2022-10-14T01:10:36.405Z,0.00
2022-10-14T01:11:36.350Z,0.00
2022-10-14T01:12:36.401Z,0.00
2022-10-14T01:13:36.334Z,0.00
2022-10-14T01:14:36.340Z,0.00
2022-10-14T01:15:36.298Z,0.00
2022-10-14T01:16:36.357Z,0.00
2022-10-14T01:17:36.279Z,0.00
2022-10-14T01:18:36.298Z,0.00
2022-10-14T01:19:36.271Z,0.00
2022-10-14T01:20:36.255Z,0.00
2022-10-14T01:21:36.224Z,0.00
2022-10-14T01:22:36.260Z,0.00
2022-10-14T01:23:36.228Z,0.00
2022-10-14T01:24:36.182Z,0.00
2022-10-14T01:25:36.213Z,0.00
2022-10-14T01:26:36.165Z,0.00
2022-10-14T01:27:36.143Z,0.00
2022-10-14T01:28:36.244Z,0.00
2022-10-14T01:29:36.114Z,0.00
2022-10-14T01:30:36.109Z,0.00
2022-10-14T01:31:36.106Z,0.00
2022-10-14T01:32:36.102Z,0.00
2022-10-14T01:33:36.065Z,0.00
2022-10-14T01:34:36.177Z,0.00
2022-10-14T01:35:36.068Z,0.00
2022-10-14T01:36:36.040Z,0.00
2022-10-14T01:37:36.017Z,0.00
2022-10-14T01:38:36.013Z,0.00
2022-10-14T01:39:35.989Z,0.00
2022-10-14T01:40:36.018Z,0.00
2022-10-14T01:41:36.032Z,0.00
2022-10-14T01:42:35.979Z,0.00
2022-10-14T01:43:35.948Z,0.00
2022-10-14T01:44:35.952Z,0.00
2022-10-14T01:45:35.949Z,0.00
2022-10-14T01:46:35.940Z,0.00
2022-10-14T01:47:35.914Z,0.00
2022-10-14T01:48:35.896Z,0.00
2022-10-14T01:49:35.909Z,0.00
2022-10-14T01:50:35.850Z,0.00
2022-10-14T01:51:35.845Z,0.00
2022-10-14T01:52:35.870Z,0.00
2022-10-14T01:53:35.811Z,0.00
2022-10-14T01:54:35.796Z,0.00
2022-10-14T01:55:35.783Z,0.00
2022-10-14T01:56:39.660Z,0.00
2022-10-14T01:57:35.757Z,0.00
2022-10-14T01:58:35.831Z,0.00
2022-10-14T01:59:35.746Z,0.00
2022-10-14T02:00:35.724Z,0.00
2022-10-14T02:01:35.734Z,0.00
2022-10-14T02:02:35.694Z,0.00
2022-10-14T02:03:35.703Z,0.00
2022-10-14T02:04:35.717Z,0.00
2022-10-14T02:05:35.678Z,0.00
2022-10-14T02:06:35.656Z,0.00
2022-10-14T02:07:35.637Z,0.00
2022-10-14T02:08:35.658Z,0.00
2022-10-14T02:09:35.606Z,0.00
2022-10-14T02:10:35.714Z,0.00
2022-10-14T02:11:35.586Z,0.00
2022-10-14T02:12:35.598Z,0.00
2022-10-14T02:13:35.553Z,0.00
2022-10-14T02:14:35.560Z,0.00
2022-10-14T02:15:35.552Z,0.00
2022-10-14T02:16:35.551Z,0.00
2022-10-14T02:17:35.503Z,0.00
2022-10-14T02:18:35.502Z,0.00
2022-10-14T02:19:35.480Z,0.00
2022-10-14T02:20:35.466Z,0.00
2022-10-14T02:21:35.459Z,0.00
2022-10-14T02:22:35.473Z,0.00
2022-10-14T02:23:35.431Z,0.00
2022-10-14T02:24:35.417Z,0.00
2022-10-14T02:25:35.415Z,0.00
2022-10-14T02:26:35.394Z,0.00
2022-10-14T02:27:35.362Z,0.00
2022-10-14T02:28:35.526Z,0.00
2022-10-14T02:29:35.348Z,0.00
2022-10-14T02:30:36.294Z,0.00
2022-10-14T02:31:35.354Z,0.00
2022-10-14T02:32:35.325Z,0.00
2022-10-14T02:33:35.285Z,0.00
2022-10-14T02:34:35.313Z,0.00
2022-10-14T02:35:35.272Z,0.00
2022-10-14T02:36:35.268Z,0.00
2022-10-14T02:37:35.247Z,0.00
2022-10-14T02:38:35.232Z,0.00
2022-10-14T02:39:35.227Z,0.00
2022-10-14T02:40:35.347Z,0.00
2022-10-14T02:41:35.206Z,0.00
2022-10-14T02:42:35.221Z,0.00
2022-10-14T02:43:35.171Z,0.00
2022-10-14T02:44:35.162Z,0.00
2022-10-14T02:45:35.158Z,0.00
2022-10-14T02:46:35.160Z,0.00
2022-10-14T02:47:35.117Z,0.00
2022-10-14T02:48:35.121Z,0.00
2022-10-14T02:49:35.088Z,0.00
2022-10-14T02:50:35.093Z,0.00
2022-10-14T02:51:35.081Z,0.00
2022-10-14T02:52:35.072Z,0.00
2022-10-14T02:53:35.042Z,0.00
2022-10-14T02:54:35.282Z,0.00
2022-10-14T02:55:35.022Z,0.00
2022-10-14T02:56:35.022Z,0.00
2022-10-14T02:57:35.005Z,0.00
2022-10-14T02:58:35.005Z,0.00
2022-10-14T02:59:34.989Z,0.00
2022-10-14T03:00:34.944Z,0.00
2022-10-14T03:01:37.489Z,0.00
2022-10-14T03:02:34.924Z,0.00
2022-10-14T03:03:34.916Z,0.00
2022-10-14T03:04:35.197Z,0.00
2022-10-14T03:05:34.885Z,0.00
2022-10-14T03:06:34.876Z,0.00
2022-10-14T03:07:34.888Z,0.00
2022-10-14T03:08:34.837Z,0.00
2022-10-14T03:09:35.076Z,0.00
2022-10-14T03:10:34.859Z,0.00
2022-10-14T03:11:34.821Z,0.00
2022-10-14T03:12:34.798Z,0.00
2022-10-14T03:13:34.787Z,0.00
2022-10-14T03:14:34.778Z,0.00
2022-10-14T03:15:34.771Z,0.00
2022-10-14T03:16:34.781Z,0.00
2022-10-14T03:17:34.733Z,0.00
2022-10-14T03:18:34.730Z,0.00
2022-10-14T03:19:34.713Z,0.00
2022-10-14T03:20:34.708Z,0.00
2022-10-14T03:21:34.719Z,0.00
2022-10-14T03:22:34.693Z,0.00
2022-10-14T03:23:34.689Z,0.00
2022-10-14T03:24:34.642Z,0.00
2022-10-14T03:25:34.630Z,0.00
2022-10-14T03:26:34.613Z,0.00
2022-10-14T03:27:34.604Z,0.00
2022-10-14T03:28:34.669Z,0.00
2022-10-14T03:29:35.544Z,0.00
2022-10-14T03:30:34.565Z,0.00
2022-10-14T03:31:34.566Z,0.00
2022-10-14T03:32:34.532Z,0.00
2022-10-14T03:33:34.558Z,0.00
2022-10-14T03:34:34.547Z,0.00
2022-10-14T03:35:34.505Z,0.00
2022-10-14T03:36:34.595Z,0.00
2022-10-14T03:37:34.619Z,0.00
2022-10-14T03:38:34.457Z,0.00
2022-10-14T03:39:34.638Z,0.00
2022-10-14T03:40:34.679Z,0.00
2022-10-14T03:41:34.699Z,0.00
2022-10-14T03:42:34.419Z,0.00
2022-10-14T03:43:34.397Z,0.00
2022-10-14T03:44:34.377Z,0.00
2022-10-14T03:45:34.630Z,0.00
2022-10-14T03:46:34.479Z,0.00
2022-10-14T03:47:34.381Z,0.00
2022-10-14T03:48:34.328Z,0.00
2022-10-14T03:49:34.330Z,0.00
2022-10-14T03:50:34.302Z,0.00
2022-10-14T03:51:34.293Z,0.00
2022-10-14T03:52:34.322Z,0.00
2022-10-14T03:53:34.291Z,0.00
2022-10-14T03:54:34.248Z,0.00
2022-10-14T03:55:34.241Z,0.00
2022-10-14T03:56:34.261Z,0.00
2022-10-14T03:57:34.224Z,0.00
2022-10-14T03:58:34.261Z,0.00
2022-10-14T03:59:34.194Z,0.00
2022-10-14T04:00:34.205Z,0.00
2022-10-14T04:01:34.242Z,0.00
2022-10-14T04:02:34.204Z,0.00
2022-10-14T04:03:34.143Z,0.00
2022-10-14T04:04:34.153Z,0.00
2022-10-14T04:05:34.160Z,0.00
2022-10-14T04:06:34.096Z,0.00
2022-10-14T04:07:34.095Z,0.00
2022-10-14T04:08:34.082Z,0.00
2022-10-14T04:09:34.075Z,0.00
2022-10-14T04:10:34.168Z,0.00
2022-10-14T04:11:34.036Z,0.00
2022-10-14T04:12:34.052Z,0.00
2022-10-14T04:13:34.028Z,0.00
2022-10-14T04:14:34.187Z,0.00
2022-10-14T04:15:33.988Z,0.00
2022-10-14T04:16:34.088Z,0.00
2022-10-14T04:17:33.978Z,0.00
2022-10-14T04:18:33.964Z,0.00
2022-10-14T04:19:33.956Z,0.00
2022-10-14T04:20:34.181Z,0.00
2022-10-14T04:21:33.937Z,0.00
2022-10-14T04:22:33.938Z,0.00
2022-10-14T04:23:34.063Z,0.00
2022-10-14T04:24:33.938Z,0.00
2022-10-14T04:25:33.859Z,0.00
2022-10-14T04:26:33.863Z,0.00
2022-10-14T04:27:33.831Z,0.00
2022-10-14T04:28:33.896Z,0.00
2022-10-14T04:29:33.802Z,0.00
2022-10-14T04:30:33.800Z,0.00
2022-10-14T04:31:33.806Z,0.00
2022-10-14T04:32:33.787Z,0.00
2022-10-14T04:33:34.042Z,0.00
2022-10-14T04:34:33.854Z,0.00
2022-10-14T04:35:33.723Z,0.00
2022-10-14T04:36:33.730Z,0.00
2022-10-14T04:37:34.144Z,0.00
2022-10-14T04:38:34.209Z,0.00
2022-10-14T04:39:34.323Z,0.00
2022-10-14T04:40:34.167Z,0.00
2022-10-14T04:41:33.655Z,0.00
2022-10-14T04:42:33.658Z,0.00
2022-10-14T04:43:33.627Z,0.00
2022-10-14T04:44:33.636Z,0.00
2022-10-14T04:45:33.607Z,0.00
2022-10-14T04:46:33.635Z,0.00
2022-10-14T04:47:33.590Z,0.00
2022-10-14T04:48:33.550Z,0.00
2022-10-14T04:49:33.553Z,0.00
2022-10-14T04:50:34.181Z,0.00
2022-10-14T04:51:33.525Z,0.00
2022-10-14T04:52:33.554Z,0.00
2022-10-14T04:53:33.491Z,0.00
2022-10-14T04:54:33.485Z,0.00
2022-10-14T04:55:33.485Z,0.00
2022-10-14T04:56:33.457Z,0.00
2022-10-14T04:57:34.163Z,0.00
2022-10-14T04:58:34.202Z,0.00
2022-10-14T04:59:33.425Z,0.00
2022-10-14T05:00:34.151Z,0.00
2022-10-14T05:01:34.239Z,0.00
2022-10-14T05:02:33.376Z,0.00
2022-10-14T05:03:33.904Z,0.00
2022-10-14T05:04:33.394Z,0.00
2022-10-14T05:05:34.152Z,0.00
2022-10-14T05:06:33.536Z,0.00
2022-10-14T05:07:33.361Z,0.00
2022-10-14T05:08:34.137Z,0.00
2022-10-14T05:09:33.297Z,0.00
2022-10-14T05:10:33.432Z,0.00
2022-10-14T05:11:33.749Z,0.00
2022-10-14T05:12:33.527Z,0.00
2022-10-14T05:13:33.995Z,0.00
2022-10-14T05:14:33.228Z,0.00
2022-10-14T05:15:33.735Z,0.00
2022-10-14T05:16:34.058Z,0.00
2022-10-14T05:17:33.202Z,0.00
2022-10-14T05:18:33.217Z,0.00
2022-10-14T05:19:33.167Z,0.00
2022-10-14T05:20:33.274Z,0.00
2022-10-14T05:21:33.150Z,0.00
2022-10-14T05:22:33.313Z,0.00
2022-10-14T05:23:33.140Z,0.00
2022-10-14T05:24:33.117Z,0.00
2022-10-14T05:25:33.424Z,0.00
2022-10-14T05:26:33.200Z,0.00
2022-10-14T05:27:33.472Z,0.00
2022-10-14T05:28:33.260Z,0.00
2022-10-14T05:29:33.197Z,0.00
2022-10-14T05:30:34.854Z,0.00
2022-10-14T05:31:33.360Z,0.00
2022-10-14T05:32:33.663Z,0.00
2022-10-14T05:33:33.625Z,0.00
2022-10-14T05:34:33.005Z,0.00
2022-10-14T05:35:57.476Z,0.00
2022-10-14T05:36:34.134Z,0.00
2022-10-14T05:37:33.091Z,0.00
2022-10-14T05:38:33.234Z,0.00
2022-10-14T05:39:33.011Z,0.00
2022-10-14T05:40:33.306Z,0.00
2022-10-14T05:41:33.730Z,0.00
2022-10-14T05:42:32.872Z,0.00
2022-10-14T05:43:33.230Z,0.00
2022-10-14T05:44:32.871Z,0.00
2022-10-14T05:45:33.658Z,0.00
2022-10-14T05:46:32.852Z,5.62
2022-10-14T05:47:33.338Z,5.62
2022-10-14T05:48:32.790Z,5.62
2022-10-14T05:49:32.882Z,5.62
2022-10-14T05:50:33.013Z,5.62
2022-10-14T05:51:33.123Z,5.62
2022-10-14T05:52:34.345Z,5.62
2022-10-14T05:53:33.580Z,5.62
2022-10-14T05:54:32.721Z,5.62
2022-10-14T05:55:33.181Z,11.25
2022-10-14T05:56:32.702Z,11.25
2022-10-14T05:57:32.689Z,11.25
2022-10-14T05:58:33.181Z,11.25
2022-10-14T05:59:32.673Z,16.88
2022-10-14T06:00:32.664Z,16.88
2022-10-14T06:01:32.633Z,16.88
2022-10-14T06:02:32.814Z,16.88
2022-10-14T06:03:32.699Z,22.50
2022-10-14T06:04:33.204Z,22.50
2022-10-14T06:05:33.268Z,22.50
2022-10-14T06:06:33.387Z,22.50
2022-10-14T06:07:32.574Z,28.12
2022-10-14T06:08:32.566Z,28.12
2022-10-14T06:09:32.538Z,28.12
2022-10-14T06:10:32.586Z,33.75
2022-10-14T06:11:32.599Z,33.75
2022-10-14T06:12:32.520Z,33.75
2022-10-14T06:13:32.498Z,39.38
2022-10-14T06:14:32.649Z,39.38
2022-10-14T06:15:32.690Z,39.38
2022-10-14T06:16:32.567Z,39.38
2022-10-14T06:17:32.431Z,45.00
2022-10-14T06:18:32.722Z,45.00
2022-10-14T06:19:32.729Z,45.00
2022-10-14T06:20:32.581Z,45.00
2022-10-14T06:21:32.671Z,45.00
2022-10-14T06:22:32.489Z,45.00
2022-10-14T06:23:33.340Z,45.00
2022-10-14T06:24:32.755Z,45.00
2022-10-14T06:25:32.816Z,45.00
2022-10-14T06:26:32.311Z,45.00
2022-10-14T06:27:32.345Z,45.00
2022-10-14T06:28:32.994Z,45.00
2022-10-14T06:29:32.540Z,45.00
2022-10-14T06:30:32.275Z,45.00
2022-10-14T06:31:33.202Z,45.00
2022-10-14T06:32:32.950Z,45.00
2022-10-14T06:33:32.613Z,50.62
2022-10-14T06:34:32.330Z,56.25
2022-10-14T06:35:32.806Z,61.88
2022-10-14T06:36:33.023Z,61.88
2022-10-14T06:37:32.358Z,56.25
2022-10-14T06:38:32.454Z,50.62
2022-10-14T06:39:32.546Z,50.62
2022-10-14T06:40:32.647Z,56.25
2022-10-14T06:41:32.265Z,61.88
2022-10-14T06:42:32.858Z,61.88
2022-10-14T06:43:32.115Z,56.25
2022-10-14T06:44:32.086Z,50.62
2022-10-14T06:45:32.086Z,61.88
2022-10-14T06:46:32.397Z,67.50
2022-10-14T06:47:32.079Z,67.50
2022-10-14T06:48:32.050Z,67.50
2022-10-14T06:49:32.082Z,67.50
2022-10-14T06:50:32.049Z,67.50
2022-10-14T06:51:32.056Z,67.50
2022-10-14T06:52:32.919Z,67.50
2022-10-14T06:53:32.010Z,67.50
2022-10-14T06:54:36.806Z,73.12
2022-10-14T06:55:33.142Z,73.12
2022-10-14T06:56:32.900Z,73.12
2022-10-14T06:57:32.875Z,73.12
2022-10-14T06:58:32.062Z,78.75
2022-10-14T06:59:32.041Z,101.25
2022-10-14T07:00:31.882Z,112.50
2022-10-14T07:01:32.105Z,118.12
2022-10-14T07:02:32.013Z,112.50
2022-10-14T07:03:31.878Z,106.88
2022-10-14T07:04:32.048Z,95.62
2022-10-14T07:05:32.043Z,95.62
2022-10-14T07:06:32.062Z,90.00
2022-10-14T07:07:31.816Z,90.00
2022-10-14T07:08:32.041Z,78.75
2022-10-14T07:09:31.763Z,73.12
2022-10-14T07:10:32.069Z,73.12
2022-10-14T07:11:31.776Z,67.50
2022-10-14T07:12:31.776Z,61.88
2022-10-14T07:13:31.716Z,67.50
2022-10-14T07:14:31.717Z,67.50
2022-10-14T07:15:35.368Z,61.88
2022-10-14T07:16:31.748Z,56.25
2022-10-14T07:17:31.799Z,50.62
2022-10-14T07:18:31.754Z,50.62
2022-10-14T07:19:31.776Z,50.62
2022-10-14T07:20:31.756Z,56.25
2022-10-14T07:21:31.647Z,61.88
2022-10-14T07:22:36.277Z,73.12
2022-10-14T07:23:32.749Z,84.38
2022-10-14T07:24:31.769Z,84.38
2022-10-14T07:25:31.749Z,84.38
2022-10-14T07:26:31.759Z,84.38
2022-10-14T07:27:31.986Z,84.38
2022-10-14T07:28:31.781Z,78.75
2022-10-14T07:29:31.972Z,90.00
2022-10-14T07:30:31.500Z,95.62
2022-10-14T07:31:31.610Z,95.62
2022-10-14T07:32:31.691Z,101.25
2022-10-14T07:33:31.858Z,106.88
2022-10-14T07:34:31.761Z,106.88
2022-10-14T07:35:31.464Z,106.88
2022-10-14T07:36:31.775Z,118.12
2022-10-14T07:37:31.512Z,118.12
2022-10-14T07:38:31.775Z,123.75
2022-10-14T07:39:31.775Z,129.38
2022-10-14T07:40:31.632Z,123.75
2022-10-14T07:41:32.095Z,106.88
2022-10-14T07:42:31.636Z,101.25
2022-10-14T07:43:31.667Z,101.25
2022-10-14T07:44:31.316Z,101.25
2022-10-14T07:45:31.310Z,90.00
2022-10-14T07:46:31.316Z,84.38
2022-10-14T07:47:31.292Z,90.00
2022-10-14T07:48:33.014Z,101.25
2022-10-14T07:49:32.303Z,112.50
2022-10-14T07:50:31.287Z,112.50
2022-10-14T07:51:31.288Z,112.50
2022-10-14T07:52:32.198Z,118.12
2022-10-14T07:53:31.289Z,118.12
2022-10-14T07:54:31.210Z,123.75
2022-10-14T07:55:31.293Z,129.38
2022-10-14T07:56:31.355Z,129.38
2022-10-14T07:57:31.305Z,129.38
2022-10-14T07:58:31.310Z,140.62
2022-10-14T07:59:31.290Z,157.50
2022-10-14T08:00:31.310Z,163.12
2022-10-14T08:01:31.341Z,168.75
2022-10-14T08:02:31.312Z,208.12
2022-10-14T08:03:31.083Z,219.38
2022-10-14T08:04:31.314Z,219.38
2022-10-14T08:05:39.131Z,219.38
2022-10-14T08:06:32.313Z,225.00
2022-10-14T08:07:31.314Z,225.00
2022-10-14T08:08:31.306Z,208.12
2022-10-14T08:09:31.316Z,219.38
2022-10-14T08:10:31.309Z,219.38
2022-10-14T08:11:31.316Z,208.12
2022-10-14T08:12:31.727Z,213.75
2022-10-14T08:13:31.274Z,213.75
2022-10-14T08:14:30.978Z,208.12
2022-10-14T08:15:31.736Z,202.50
2022-10-14T08:16:31.839Z,202.50
2022-10-14T08:17:31.089Z,208.12
2022-10-14T08:18:30.907Z,202.50
2022-10-14T08:19:30.863Z,191.25
2022-10-14T08:20:30.859Z,174.38
2022-10-14T08:21:30.843Z,168.75
2022-10-14T08:22:30.878Z,157.50
2022-10-14T08:23:32.139Z,163.12
2022-10-14T08:24:30.809Z,168.75
2022-10-14T08:25:30.861Z,174.38
2022-10-14T08:26:30.962Z,180.00
2022-10-14T08:27:31.733Z,191.25
2022-10-14T08:28:30.937Z,185.62
2022-10-14T08:29:31.005Z,180.00
2022-10-14T08:30:31.062Z,168.75
2022-10-14T08:31:31.034Z,151.88
2022-10-14T08:32:31.664Z,135.00
2022-10-14T08:33:31.642Z,140.62
2022-10-14T08:34:30.735Z,140.62
2022-10-14T08:35:30.978Z,135.00
2022-10-14T08:36:30.644Z,129.38
2022-10-14T08:37:30.843Z,123.75
2022-10-14T08:38:30.775Z,118.12
2022-10-14T08:39:31.180Z,112.50
2022-10-14T08:40:30.776Z,106.88
2022-10-14T08:41:30.817Z,106.88
2022-10-14T08:42:30.728Z,123.75
2022-10-14T08:43:31.049Z,118.12
2022-10-14T08:44:31.229Z,123.75
2022-10-14T08:45:30.686Z,123.75
2022-10-14T08:46:30.869Z,135.00
2022-10-14T08:47:30.850Z,135.00
2022-10-14T08:48:30.910Z,146.25
2022-10-14T08:49:30.609Z,168.75
2022-10-14T08:50:30.559Z,151.88
2022-10-14T08:51:30.451Z,146.25
2022-10-14T08:52:33.700Z,146.25
2022-10-14T08:53:31.433Z,157.50
2022-10-14T08:54:30.852Z,174.38
2022-10-14T08:55:30.464Z,180.00
2022-10-14T08:56:30.408Z,180.00
2022-10-14T08:57:30.401Z,168.75
2022-10-14T08:58:31.357Z,163.12
2022-10-14T08:59:31.186Z,168.75
2022-10-14T09:00:30.837Z,174.38
2022-10-14T09:01:30.906Z,191.25
2022-10-14T09:02:30.827Z,202.50
2022-10-14T09:03:30.827Z,185.62
2022-10-14T09:04:30.452Z,185.62
2022-10-14T09:05:30.666Z,185.62
2022-10-14T09:06:31.226Z,168.75
2022-10-14T09:07:30.373Z,168.75
2022-10-14T09:08:31.196Z,146.25
2022-10-14T09:09:30.219Z,135.00
2022-10-14T09:10:30.461Z,135.00
2022-10-14T09:11:33.595Z,151.88
2022-10-14T09:12:30.980Z,151.88
2022-10-14T09:13:30.174Z,163.12
2022-10-14T09:14:30.220Z,163.12
2022-10-14T09:15:30.380Z,168.75
2022-10-14T09:16:30.544Z,196.88
2022-10-14T09:17:34.008Z,225.00
2022-10-14T09:18:31.642Z,241.88
2022-10-14T09:19:30.351Z,241.88
2022-10-14T09:20:30.182Z,303.75
2022-10-14T09:22:31.855Z,315.00
2022-10-14T09:23:30.353Z,315.00
2022-10-14T09:24:30.214Z,360.00
2022-10-14T09:25:30.416Z,393.75
2022-10-14T09:26:30.031Z,421.88
2022-10-14T09:27:29.984Z,416.25
2022-10-14T09:28:30.095Z,421.88
2022-10-14T09:29:30.065Z,388.12
2022-10-14T09:30:30.002Z,337.50
2022-10-14T09:31:29.995Z,331.88
2022-10-14T09:32:29.950Z,281.25
2022-10-14T09:33:29.917Z,208.12
2022-10-14T09:34:29.931Z,174.38
2022-10-14T09:35:29.890Z,157.50
2022-10-14T09:36:29.917Z,157.50
2022-10-14T09:37:29.908Z,151.88
2022-10-14T09:38:29.928Z,157.50
2022-10-14T09:39:29.918Z,163.12
2022-10-14T09:40:30.239Z,174.38
2022-10-14T09:41:29.819Z,185.62
2022-10-14T09:42:30.750Z,174.38
2022-10-14T09:43:31.214Z,174.38
2022-10-14T09:44:29.903Z,168.75
2022-10-14T09:45:31.577Z,151.88
2022-10-14T09:46:29.911Z,163.12
2022-10-14T09:47:29.853Z,174.38
2022-10-14T09:48:29.903Z,202.50
2022-10-14T09:49:29.702Z,219.38
2022-10-14T09:50:30.653Z,219.38
2022-10-14T09:51:29.897Z,236.25
2022-10-14T09:52:29.713Z,270.00
2022-10-14T09:53:29.653Z,309.38
2022-10-14T09:54:29.920Z,320.62
2022-10-14T09:55:29.650Z,320.62
2022-10-14T09:56:29.908Z,315.00
2022-10-14T09:57:29.896Z,315.00
2022-10-14T09:58:29.890Z,309.38
2022-10-14T09:59:29.889Z,315.00
2022-10-14T10:00:29.887Z,315.00
2022-10-14T10:01:29.640Z,343.12
2022-10-14T10:02:29.887Z,371.25
2022-10-14T10:03:29.824Z,388.12
2022-10-14T10:04:29.908Z,388.12
2022-10-14T10:05:29.723Z,399.38
2022-10-14T10:06:29.802Z,444.38
2022-10-14T10:07:29.512Z,433.12
2022-10-14T10:08:29.487Z,416.25
2022-10-14T10:09:29.821Z,410.62
2022-10-14T10:10:32.833Z,376.88
2022-10-14T10:11:29.839Z,360.00
2022-10-14T10:12:29.776Z,320.62
2022-10-14T10:13:29.793Z,281.25
2022-10-14T10:14:29.878Z,253.12
2022-10-14T10:15:29.786Z,275.62
2022-10-14T10:16:29.875Z,258.75
2022-10-14T10:17:30.286Z,219.38
2022-10-14T10:18:29.474Z,168.75
2022-10-14T10:19:29.322Z,163.12
2022-10-14T10:20:29.875Z,191.25
2022-10-14T10:21:29.438Z,196.88
2022-10-14T10:22:29.588Z,202.50
2022-10-14T10:23:29.268Z,253.12
2022-10-14T10:24:30.967Z,264.38
2022-10-14T10:25:29.298Z,382.50
2022-10-14T10:26:29.869Z,410.62
2022-10-14T10:27:29.221Z,393.75
2022-10-14T10:28:29.457Z,360.00
2022-10-14T10:29:29.821Z,326.25
2022-10-14T10:30:29.239Z,275.62
2022-10-14T10:31:29.353Z,270.00
2022-10-14T10:32:29.719Z,298.12
2022-10-14T10:33:29.162Z,281.25
2022-10-14T10:34:29.208Z,208.12
2022-10-14T10:35:29.121Z,191.25
2022-10-14T10:36:29.159Z,191.25
2022-10-14T10:37:29.135Z,219.38
2022-10-14T10:38:29.192Z,191.25
2022-10-14T10:39:29.229Z,163.12
2022-10-14T10:40:29.223Z,191.25
2022-10-14T10:41:29.038Z,196.88
2022-10-14T10:42:29.264Z,213.75
2022-10-14T10:43:29.015Z,236.25
2022-10-14T10:44:29.326Z,258.75
2022-10-14T10:45:32.759Z,275.62
2022-10-14T10:46:30.926Z,320.62
2022-10-14T10:47:29.017Z,326.25
2022-10-14T10:48:28.964Z,365.62
2022-10-14T10:49:28.997Z,450.00
2022-10-14T10:50:29.090Z,511.88
2022-10-14T10:51:28.971Z,528.75
2022-10-14T10:52:29.510Z,551.25
2022-10-14T10:53:29.008Z,511.88
2022-10-14T10:54:28.900Z,455.62
2022-10-14T10:55:28.902Z,438.75
2022-10-14T10:56:28.872Z,382.50
2022-10-14T10:57:28.949Z,326.25
2022-10-14T10:58:29.223Z,331.88
2022-10-14T10:59:28.800Z,348.75
2022-10-14T11:00:29.261Z,360.00
2022-10-14T11:01:29.262Z,376.88
2022-10-14T11:02:29.624Z,354.38
2022-10-14T11:03:28.854Z,298.12
2022-10-14T11:04:29.134Z,298.12
2022-10-14T11:05:28.902Z,320.62
2022-10-14T11:06:28.986Z,303.75
2022-10-14T11:07:28.747Z,281.25
2022-10-14T11:08:28.746Z,258.75
2022-10-14T11:09:29.167Z,241.88
2022-10-14T11:10:28.876Z,225.00
2022-10-14T11:11:28.661Z,225.00
2022-10-14T11:12:28.910Z,270.00
2022-10-14T11:13:30.840Z,286.88
2022-10-14T11:14:28.851Z,270.00
2022-10-14T11:15:28.627Z,292.50
2022-10-14T11:16:29.419Z,315.00
2022-10-14T11:17:28.837Z,354.38
2022-10-14T11:18:28.582Z,393.75
2022-10-14T11:19:28.570Z,405.00
2022-10-14T11:20:29.253Z,405.00
2022-10-14T11:21:28.783Z,405.00
2022-10-14T11:22:28.545Z,399.38
2022-10-14T11:23:28.521Z,399.38
2022-10-14T11:24:28.499Z,388.12
2022-10-14T11:25:29.218Z,365.62
2022-10-14T11:26:28.592Z,331.88
2022-10-14T11:27:29.193Z,320.62
2022-10-14T11:28:28.885Z,326.25
2022-10-14T11:29:29.372Z,337.50
2022-10-14T11:30:29.235Z,331.88
2022-10-14T11:31:29.216Z,331.88
2022-10-14T11:32:28.807Z,337.50
2022-10-14T11:33:28.575Z,360.00
2022-10-14T11:34:28.578Z,371.25
2022-10-14T11:35:28.395Z,388.12
2022-10-14T11:36:28.327Z,393.75
2022-10-14T11:37:28.358Z,399.38
2022-10-14T11:38:28.441Z,416.25
2022-10-14T11:39:30.675Z,421.88
2022-10-14T11:40:28.442Z,416.25
2022-10-14T11:41:28.441Z,393.75
2022-10-14T11:42:28.462Z,371.25
2022-10-14T11:43:28.227Z,354.38
2022-10-14T11:44:28.532Z,365.62
2022-10-14T11:45:28.525Z,388.12
2022-10-14T11:46:28.549Z,416.25
2022-10-14T11:47:28.569Z,405.00
2022-10-14T11:48:28.557Z,393.75
2022-10-14T11:49:28.643Z,365.62
2022-10-14T11:50:28.616Z,337.50
2022-10-14T11:51:33.234Z,315.00
2022-10-14T11:52:29.221Z,298.12
2022-10-14T11:53:28.318Z,275.62
2022-10-14T11:54:28.757Z,264.38
2022-10-14T11:55:28.358Z,264.38
2022-10-14T11:56:28.068Z,270.00
2022-10-14T11:57:28.771Z,275.62
2022-10-14T11:58:28.089Z,281.25
2022-10-14T11:59:28.188Z,298.12
2022-10-14T12:00:28.094Z,298.12
2022-10-14T12:01:28.393Z,320.62
2022-10-14T12:02:28.585Z,343.12
2022-10-14T12:03:28.775Z,382.50
2022-10-14T12:04:28.087Z,410.62
2022-10-14T12:05:27.955Z,421.88
2022-10-14T12:06:27.994Z,421.88
2022-10-14T12:07:28.054Z,416.25
2022-10-14T12:08:30.430Z,399.38
2022-10-14T12:09:29.036Z,343.12
2022-10-14T12:10:27.921Z,298.12
2022-10-14T12:11:27.934Z,275.62
2022-10-14T12:12:28.806Z,247.50
2022-10-14T12:13:28.227Z,236.25
2022-10-14T12:14:28.658Z,236.25
2022-10-14T12:15:28.022Z,225.00
2022-10-14T12:16:27.945Z,230.62
2022-10-14T12:17:27.798Z,208.12
2022-10-14T12:18:27.822Z,196.88
2022-10-14T12:19:27.787Z,196.88
2022-10-14T12:20:28.707Z,191.25
2022-10-14T12:21:27.940Z,180.00
2022-10-14T12:22:28.679Z,185.62
2022-10-14T12:23:27.790Z,180.00
2022-10-14T12:24:28.476Z,180.00
2022-10-14T12:25:27.775Z,180.00
2022-10-14T12:26:27.770Z,180.00
2022-10-14T12:27:27.800Z,180.00
2022-10-14T12:28:27.735Z,174.38
2022-10-14T12:29:27.764Z,180.00
2022-10-14T12:30:27.712Z,196.88
2022-10-14T12:31:27.764Z,202.50
2022-10-14T12:32:27.938Z,202.50
2022-10-14T12:33:27.766Z,174.38
2022-10-14T12:34:27.575Z,151.88
2022-10-14T12:35:27.635Z,151.88
2022-10-14T12:36:27.621Z,163.12
2022-10-14T12:37:31.351Z,185.62
2022-10-14T12:38:27.662Z,208.12
2022-10-14T12:39:27.657Z,236.25
2022-10-14T12:40:27.707Z,258.75
2022-10-14T12:41:27.519Z,270.00
2022-10-14T12:42:27.608Z,258.75
2022-10-14T12:43:27.749Z,241.88
2022-10-14T12:44:27.758Z,208.12
2022-10-14T12:45:27.756Z,180.00
2022-10-14T12:46:27.518Z,168.75
2022-10-14T12:47:27.681Z,163.12
2022-10-14T12:48:27.532Z,146.25
2022-10-14T12:49:27.460Z,140.62
2022-10-14T12:50:27.711Z,151.88
2022-10-14T12:51:27.480Z,163.12
2022-10-14T12:52:27.352Z,168.75
2022-10-14T12:53:27.753Z,196.88
2022-10-14T12:54:27.750Z,219.38